LOWS/SZG METAR and TAF weather

Enter ICAO airport designator
Station Type Date Time Source
LOWS METAR 2020/11/27 14:20 UTC NOAA

LOWS 271420Z 32007KT CAVOK 03/01 Q1020 NOSIG


Station Type Date Time Source
LOWS Decoded METAR 2020/11/27 14:20 UTC NOAA

Salzburg-Flughafen, Austria (LOWS) 47-48N 013-00E 450M
Nov 27, 2020 - 09:20 AM EST / 2020.11.27 1420 UTC
Wind: from the NW (320 degrees) at 8 MPH (7 KT):0
Visibility: greater than 7 mile(s):0
Temperature: 37 F (3 C)
Dew Point: 33 F (1 C)
Relative Humidity: 86%
Pressure (altimeter): 30.12 in. Hg (1020 hPa)
ob: LOWS 271420Z 32007KT CAVOK 03/01 Q1020 NOSIG
cycle: 14

Station Type Date Time Source
LOWS TAF 2020/11/27 12:21 UTC NOAA

TAF LOWS 271115Z 2712/2812 VRB02KT 9999 FEW005 TX04/2713Z TNM03/2802Z
BECMG 2714/2716 5000 BKN005
TEMPO 2718/2808 0200 FZFG VV001
BECMG 2808/2810 9999 FEW005

Example: see airport list